Time;durP1;ratioP1;P1;durP2;ratioP2;P2;SDS_P1;SDS_P2;PMS_P1;PMS_P2;Temp;Humidity;BMP_temperature;BMP_pressure;BME280_temperature;BME280_humidity;BME280_pressure;Samples;Min_cycle;Max_cycle;Signal;HPM_P1;HPM_P2
2023/08/21 00:01:51;;;;;;;8.50;2.37;;;21.90;1.00;;;;;;4943992;29;20770;-87
2023/08/21 00:04:18;;;;;;;5.23;1.97;;;21.90;1.00;;;;;;4931994;29;20208;-85
2023/08/21 00:06:45;;;;;;;6.50;2.10;;;22.00;1.00;;;;;;4930105;29;20242;-84
2023/08/21 00:09:10;;;;;;;4.93;2.00;;;22.00;1.00;;;;;;4929860;29;20200;-85
2023/08/21 00:11:36;;;;;;;6.93;2.10;;;21.90;1.00;;;;;;4920085;29;20187;-85
2023/08/21 00:14:02;;;;;;;7.10;2.27;;;21.90;1.00;;;;;;4919402;29;20178;-84
2023/08/21 00:16:28;;;;;;;7.17;2.07;;;21.80;1.00;;;;;;4920279;29;20248;-85
2023/08/21 00:18:54;;;;;;;7.33;1.93;;;21.70;1.00;;;;;;4919243;29;20660;-87
2023/08/21 00:21:20;;;;;;;7.30;2.37;;;21.60;1.00;;;;;;4921135;29;20218;-87
2023/08/21 00:23:46;;;;;;;6.10;2.07;;;21.60;1.00;;;;;;4919123;29;20179;-85
2023/08/21 00:26:12;;;;;;;5.60;2.23;;;21.50;1.00;;;;;;4919140;29;20644;-87
2023/08/21 00:28:38;;;;;;;10.33;2.47;;;21.50;1.00;;;;;;4919806;29;20272;-87
2023/08/21 00:31:04;;;;;;;5.40;2.10;;;21.50;1.00;;;;;;4930250;29;20243;-84
2023/08/21 00:33:31;;;;;;;6.13;2.37;;;21.60;1.00;;;;;;4942363;29;20186;-85
2023/08/21 00:35:57;;;;;;;4.63;2.03;;;21.60;1.00;;;;;;4942226;29;20172;-87
2023/08/21 00:38:23;;;;;;;5.73;2.43;;;21.60;1.00;;;;;;4943651;28;20188;-87
2023/08/21 00:40:49;;;;;;;7.83;2.20;;;21.40;1.00;;;;;;4937619;29;20212;-84
2023/08/21 00:43:19;;;;;;;5.50;1.87;;;21.30;1.00;;;;;;4922333;29;20182;-84
2023/08/21 00:45:47;;;;;;;7.73;2.20;;;21.30;3.70;;;;;;4919762;29;20170;-85
2023/08/21 00:48:14;;;;;;;6.67;2.70;;;21.30;5.70;;;;;;4920505;29;20191;-85
2023/08/21 00:50:40;;;;;;;6.43;2.43;;;21.30;7.50;;;;;;4920706;29;20241;-85
2023/08/21 00:53:06;;;;;;;8.67;2.70;;;21.30;11.20;;;;;;4920427;29;20519;-85
2023/08/21 00:55:33;;;;;;;8.83;2.33;;;21.30;11.30;;;;;;4920485;29;20538;-86
2023/08/21 00:57:59;;;;;;;6.93;2.40;;;21.40;8.20;;;;;;4920399;29;20171;-87
2023/08/21 01:00:27;;;;;;;8.50;2.50;;;21.30;7.10;;;;;;4920116;29;20208;-87
2023/08/21 01:02:53;;;;;;;7.00;2.50;;;21.20;12.40;;;;;;4920235;29;20198;-86
2023/08/21 01:05:22;;;;;;;6.60;2.50;;;21.10;15.70;;;;;;4920762;29;20181;-87
2023/08/21 01:08:03;;;;;;;7.20;2.80;;;21.20;12.10;;;;;;4920732;29;20268;-88
2023/08/21 01:10:42;;;;;;;7.13;2.70;;;21.40;10.20;;;;;;4921218;29;20196;-87
2023/08/21 01:13:37;;;;;;;8.20;2.47;;;21.60;1.80;;;;;;4919658;29;20651;-87
2023/08/21 01:16:04;;;;;;;12.13;2.50;;;21.80;1.00;;;;;;4918789;29;20200;-87
2023/08/21 01:18:31;;;;;;;8.37;2.17;;;21.90;1.00;;;;;;4919010;29;20215;-85
2023/08/21 01:20:58;;;;;;;8.63;2.30;;;21.80;1.00;;;;;;4918758;29;20314;-87
2023/08/21 01:23:36;;;;;;;9.13;2.20;;;21.80;1.00;;;;;;4918741;29;20176;-87
2023/08/21 01:26:03;;;;;;;5.70;2.30;;;21.70;1.00;;;;;;4918162;29;20222;-87
2023/08/21 01:28:30;;;;;;;8.47;2.73;;;21.50;1.00;;;;;;4919178;29;20172;-87
2023/08/21 01:31:26;;;;;;;8.73;2.30;;;21.50;2.00;;;;;;4918830;29;20183;-86
2023/08/21 01:33:57;;;;;;;6.53;2.00;;;21.40;2.00;;;;;;4918986;29;20176;-87
2023/08/21 01:36:24;;;;;;;10.33;2.37;;;21.50;5.20;;;;;;4918663;29;20179;-87
2023/08/21 01:38:50;;;;;;;9.67;2.43;;;21.60;2.10;;;;;;4919432;29;20191;-87
2023/08/21 01:41:16;;;;;;;6.97;2.87;;;21.50;1.00;;;;;;4918773;29;20215;-86
2023/08/21 01:43:42;;;;;;;6.03;1.93;;;21.40;3.50;;;;;;4934333;29;20250;-88
2023/08/21 01:46:11;;;;;;;5.77;2.10;;;21.10;12.50;;;;;;4919052;29;20184;-87
2023/08/21 01:48:38;;;;;;;7.47;2.20;;;21.20;12.50;;;;;;4918769;29;20180;-87
2023/08/21 01:51:04;;;;;;;8.53;2.47;;;21.20;12.00;;;;;;4918100;29;20661;-88
2023/08/21 01:53:30;;;;;;;7.93;2.80;;;21.30;7.90;;;;;;4935402;29;20254;-87
2023/08/21 01:55:55;;;;;;;5.50;2.10;;;21.30;6.50;;;;;;4918359;29;20541;-87
2023/08/21 01:58:21;;;;;;;7.53;2.43;;;21.30;7.70;;;;;;4935777;29;20170;-88
2023/08/21 02:00:47;;;;;;;7.57;2.40;;;21.20;8.80;;;;;;4918915;29;20682;-87
2023/08/21 02:03:13;;;;;;;6.80;2.50;;;21.20;5.70;;;;;;4919270;29;20186;-87
2023/08/21 02:05:40;;;;;;;7.23;2.80;;;21.20;9.50;;;;;;4918736;29;20638;-86
2023/08/21 02:08:07;;;;;;;8.90;2.57;;;21.20;10.10;;;;;;4918425;29;20179;-87
2023/08/21 02:10:33;;;;;;;7.80;2.53;;;21.30;9.00;;;;;;4919588;29;20185;-85
2023/08/21 02:12:58;;;;;;;8.57;2.50;;;21.30;7.10;;;;;;4922354;29;20183;-84
2023/08/21 02:15:25;;;;;;;9.67;2.83;;;21.30;6.00;;;;;;4921642;29;20205;-87
2023/08/21 02:17:51;;;;;;;8.53;2.87;;;21.30;6.20;;;;;;4921820;29;20209;-87
2023/08/21 02:20:16;;;;;;;8.83;2.40;;;21.20;6.70;;;;;;4921314;29;20179;-86
2023/08/21 02:22:42;;;;;;;7.03;2.33;;;21.20;8.60;;;;;;4921611;29;20186;-87
2023/08/21 02:25:08;;;;;;;5.00;2.30;;;21.10;10.50;;;;;;4921421;29;20271;-87
2023/08/21 02:27:34;;;;;;;10.87;2.57;;;21.20;7.40;;;;;;4921365;29;20176;-85
2023/08/21 02:29:59;;;;;;;8.70;2.67;;;21.20;10.40;;;;;;4921245;29;20180;-85
2023/08/21 02:32:25;;;;;;;7.43;2.40;;;21.20;9.90;;;;;;4921132;29;20183;-85
2023/08/21 02:34:51;;;;;;;6.87;2.43;;;21.30;7.60;;;;;;4921272;29;20260;-86
2023/08/21 02:37:16;;;;;;;7.20;2.53;;;21.20;8.80;;;;;;4920970;29;20581;-85
2023/08/21 02:39:42;;;;;;;8.20;2.60;;;21.00;13.40;;;;;;4921496;29;20691;-87
2023/08/21 02:42:11;;;;;;;10.63;3.00;;;21.00;15.00;;;;;;4921789;29;20218;-86
2023/08/21 02:44:37;;;;;;;5.97;2.50;;;21.10;13.50;;;;;;4922396;29;20174;-86
2023/08/21 02:47:03;;;;;;;6.90;2.40;;;21.20;9.60;;;;;;4921710;29;20538;-87
2023/08/21 02:49:28;;;;;;;10.87;3.10;;;21.30;6.60;;;;;;4921718;29;20177;-87
2023/08/21 02:51:57;;;;;;;6.67;2.90;;;21.20;6.20;;;;;;4922330;29;20174;-86
2023/08/21 02:54:25;;;;;;;10.73;2.50;;;21.40;1.00;;;;;;4921874;29;20538;-87
2023/08/21 02:56:54;;;;;;;5.70;2.47;;;21.20;3.40;;;;;;4921711;29;20221;-85
2023/08/21 02:59:26;;;;;;;7.57;2.53;;;21.00;10.00;;;;;;4938723;29;20193;-87
2023/08/21 03:01:52;;;;;;;9.97;2.73;;;20.90;12.70;;;;;;4921516;29;20222;-85
2023/08/21 03:04:18;;;;;;;8.23;2.60;;;21.00;14.00;;;;;;4939204;29;20173;-87
2023/08/21 03:06:43;;;;;;;10.83;2.43;;;20.90;14.30;;;;;;4922592;29;20177;-86
2023/08/21 03:09:09;;;;;;;7.27;2.67;;;20.90;12.40;;;;;;4939621;29;20180;-86
2023/08/21 03:11:34;;;;;;;6.00;2.30;;;20.90;14.30;;;;;;4913185;29;20191;-87
2023/08/21 03:14:00;;;;;;;9.43;2.83;;;20.90;15.80;;;;;;4925620;29;20664;-85
2023/08/21 03:16:26;;;;;;;9.80;2.90;;;20.90;13.10;;;;;;4943362;29;20253;-85
2023/08/21 03:18:57;;;;;;;8.93;2.70;;;21.00;11.60;;;;;;4942572;29;20189;-85
2023/08/21 03:21:29;;;;;;;5.13;2.37;;;21.10;12.10;;;;;;4942504;29;20204;-85
2023/08/21 03:23:56;;;;;;;8.33;2.53;;;21.10;12.90;;;;;;4936396;29;20174;-87
2023/08/21 03:26:23;;;;;;;6.37;2.67;;;21.20;8.80;;;;;;4937680;29;20181;-85
2023/08/21 03:28:48;;;;;;;7.33;2.60;;;21.10;7.80;;;;;;4938102;29;20184;-88
2023/08/21 03:31:15;;;;;;;7.50;2.40;;;21.10;8.00;;;;;;4920470;29;20180;-87
2023/08/21 03:33:40;;;;;;;6.93;2.33;;;21.10;4.50;;;;;;4921042;29;20190;-86
2023/08/21 03:36:07;;;;;;;8.30;2.37;;;20.90;8.10;;;;;;4921115;29;20185;-85
2023/08/21 03:38:32;;;;;;;6.10;2.40;;;20.90;11.20;;;;;;4920614;29;20201;-88
2023/08/21 03:40:59;;;;;;;9.70;2.73;;;21.20;7.00;;;;;;4921473;29;20208;-86
2023/08/21 03:43:26;;;;;;;8.70;2.40;;;21.20;2.20;;;;;;4926665;29;20184;-86
2023/08/21 03:45:55;;;;;;;8.30;2.60;;;21.20;1.00;;;;;;4931575;29;20176;-85
2023/08/21 03:48:24;;;;;;;7.60;2.57;;;21.20;1.00;;;;;;4942623;29;20250;-86
2023/08/21 03:50:50;;;;;;;7.30;2.37;;;21.20;1.00;;;;;;4927758;29;20252;-86
2023/08/21 03:53:15;;;;;;;9.40;2.43;;;21.10;2.40;;;;;;4924769;29;20175;-86
2023/08/21 03:55:41;;;;;;;7.37;2.50;;;21.10;3.90;;;;;;4924507;29;20180;-86
2023/08/21 03:58:07;;;;;;;6.30;2.17;;;21.10;2.90;;;;;;4940682;29;20285;-89
2023/08/21 04:00:32;;;;;;;7.80;2.80;;;21.20;1.00;;;;;;4920328;29;20212;-88
2023/08/21 04:02:58;;;;;;;6.23;2.30;;;21.20;1.00;;;;;;4919892;29;20191;-86
2023/08/21 04:05:24;;;;;;;9.90;2.63;;;20.90;1.00;;;;;;4920460;29;20189;-87
2023/08/21 04:07:49;;;;;;;7.17;2.63;;;20.80;4.90;;;;;;4941652;29;20170;-86
2023/08/21 04:10:16;;;;;;;8.27;2.60;;;20.90;8.40;;;;;;4925947;29;20176;-85
2023/08/21 04:12:42;;;;;;;9.33;2.80;;;21.10;1.00;;;;;;4922269;29;20182;-87
2023/08/21 04:15:09;;;;;;;7.17;2.87;;;21.20;1.00;;;;;;4920721;29;20189;-87
2023/08/21 04:17:34;;;;;;;7.87;2.80;;;21.20;1.00;;;;;;4937793;29;20278;-86
2023/08/21 04:20:00;;;;;;;8.27;2.80;;;21.20;1.00;;;;;;4920633;29;20607;-87
2023/08/21 04:22:25;;;;;;;7.57;2.67;;;21.30;1.00;;;;;;4920926;29;20774;-85
2023/08/21 04:24:51;;;;;;;7.73;2.60;;;21.20;1.00;;;;;;4921481;29;20182;-88
2023/08/21 04:27:17;;;;;;;10.00;2.80;;;20.90;1.00;;;;;;4942585;29;20250;-87
2023/08/21 04:29:43;;;;;;;9.40;2.83;;;20.80;6.20;;;;;;4933163;29;20186;-88
2023/08/21 04:32:12;;;;;;;7.30;2.30;;;21.00;4.10;;;;;;4920050;29;20188;-87
2023/08/21 04:34:38;;;;;;;7.87;2.77;;;21.10;3.20;;;;;;4919362;29;20210;-87
2023/08/21 04:37:04;;;;;;;7.23;2.50;;;21.10;1.00;;;;;;4919882;29;20180;-86
2023/08/21 04:39:30;;;;;;;8.67;3.07;;;21.20;1.00;;;;;;4919752;29;20276;-86
2023/08/21 04:41:56;;;;;;;8.17;3.30;;;21.10;1.00;;;;;;4919475;29;20685;-86
2023/08/21 04:44:24;;;;;;;7.57;2.60;;;21.00;1.00;;;;;;4919361;29;20181;-86
2023/08/21 04:46:53;;;;;;;8.50;2.63;;;20.80;1.00;;;;;;4920695;29;20177;-86
2023/08/21 04:49:20;;;;;;;11.33;2.83;;;20.90;1.00;;;;;;4920211;29;20256;-85
2023/08/21 04:51:48;;;;;;;7.47;2.60;;;20.90;1.00;;;;;;4936926;29;20193;-85
2023/08/21 04:54:14;;;;;;;9.80;2.80;;;20.90;1.00;;;;;;4933496;29;20173;-85
2023/08/21 04:56:40;;;;;;;9.80;2.77;;;20.80;1.00;;;;;;4920077;29;20239;-86
2023/08/21 04:59:08;;;;;;;8.27;2.70;;;20.80;1.00;;;;;;4918977;29;20238;-85
2023/08/21 05:01:33;;;;;;;7.23;2.67;;;20.80;1.00;;;;;;4935800;29;20207;-86
2023/08/21 05:03:59;;;;;;;7.27;2.87;;;20.80;1.00;;;;;;4918724;29;20196;-87
2023/08/21 05:06:24;;;;;;;10.80;3.13;;;20.80;1.00;;;;;;4918717;29;20548;-85
2023/08/21 05:08:50;;;;;;;8.00;2.33;;;20.70;1.00;;;;;;4918988;29;20677;-86
2023/08/21 05:11:16;;;;;;;7.73;2.50;;;20.60;1.00;;;;;;4918621;29;20542;-87
2023/08/21 05:13:41;;;;;;;7.83;2.37;;;20.70;3.20;;;;;;4918799;29;20177;-86
2023/08/21 05:16:07;;;;;;;6.93;2.60;;;20.80;1.00;;;;;;4919284;29;20193;-85
2023/08/21 05:18:34;;;;;;;8.87;2.90;;;20.90;1.00;;;;;;4919289;29;20625;-85
2023/08/21 05:20:59;;;;;;;7.13;2.80;;;20.90;1.00;;;;;;4919457;29;20305;-86
2023/08/21 05:23:25;;;;;;;8.00;2.93;;;21.00;1.00;;;;;;4919247;29;20177;-86
2023/08/21 05:25:51;;;;;;;6.80;2.80;;;21.10;1.00;;;;;;4919706;29;20284;-85
2023/08/21 05:28:17;;;;;;;9.47;2.83;;;21.00;1.00;;;;;;4919443;29;20268;-85
2023/08/21 05:30:43;;;;;;;9.23;3.00;;;20.90;1.00;;;;;;4918958;29;20169;-86
2023/08/21 05:33:10;;;;;;;7.13;2.97;;;20.90;1.00;;;;;;4918674;29;20182;-86
2023/08/21 05:35:36;;;;;;;9.47;3.10;;;20.90;1.00;;;;;;4918934;29;20650;-86
2023/08/21 05:38:05;;;;;;;9.03;2.90;;;21.00;1.00;;;;;;4935574;29;20198;-85
2023/08/21 05:40:31;;;;;;;8.73;3.17;;;20.90;1.00;;;;;;4935567;29;20176;-86
2023/08/21 05:42:58;;;;;;;9.57;2.97;;;20.90;1.00;;;;;;4902791;29;20185;-85
2023/08/21 05:45:23;;;;;;;10.27;3.27;;;20.90;1.00;;;;;;4919116;29;20750;-85
2023/08/21 05:47:49;;;;;;;8.63;2.83;;;20.80;1.00;;;;;;4922787;29;20185;-86
2023/08/21 05:50:15;;;;;;;7.70;2.93;;;20.80;1.00;;;;;;4923017;29;20174;-86
2023/08/21 05:52:41;;;;;;;10.53;3.33;;;20.70;1.00;;;;;;4922264;29;20199;-86
2023/08/21 05:55:07;;;;;;;9.67;3.37;;;20.60;1.00;;;;;;4922425;29;20701;-86
2023/08/21 05:57:32;;;;;;;11.70;3.20;;;20.60;1.00;;;;;;4922009;29;20661;-87
2023/08/21 05:59:58;;;;;;;7.93;3.30;;;20.80;1.00;;;;;;4922388;29;20184;-88
2023/08/21 06:02:24;;;;;;;10.93;3.30;;;20.80;1.00;;;;;;4921517;29;20212;-85
2023/08/21 06:04:49;;;;;;;8.60;3.47;;;20.90;1.00;;;;;;4921733;29;20664;-85
2023/08/21 06:07:15;;;;;;;10.37;3.70;;;20.90;1.00;;;;;;4921730;29;20177;-85
2023/08/21 06:09:41;;;;;;;9.13;3.57;;;21.00;1.00;;;;;;4921699;29;20634;-85
2023/08/21 06:12:07;;;;;;;12.13;3.63;;;21.00;1.00;;;;;;4921685;29;20208;-85
2023/08/21 06:14:32;;;;;;;10.50;4.20;;;20.90;1.00;;;;;;4921744;29;20209;-81
2023/08/21 06:17:03;;;;;;;12.83;4.53;;;21.10;1.00;;;;;;4938288;29;20186;-80
2023/08/21 06:19:28;;;;;;;13.97;4.50;;;21.10;1.00;;;;;;4938474;29;20265;-83
2023/08/21 06:21:55;;;;;;;13.60;5.13;;;21.10;1.00;;;;;;4921784;29;20305;-81
2023/08/21 06:24:21;;;;;;;12.93;3.97;;;21.10;1.00;;;;;;4938585;29;20237;-80
2023/08/21 06:26:48;;;;;;;12.90;4.97;;;21.20;1.00;;;;;;4938855;29;20178;-81
2023/08/21 06:29:13;;;;;;;17.47;4.60;;;21.40;1.00;;;;;;4939556;29;20210;-80
2023/08/21 06:31:39;;;;;;;9.23;4.30;;;21.50;1.00;;;;;;4939265;29;20211;-80
2023/08/21 06:34:06;;;;;;;9.33;3.40;;;21.60;1.00;;;;;;4938767;29;20239;-80
2023/08/21 06:36:31;;;;;;;8.83;3.80;;;21.70;1.00;;;;;;4938700;29;20183;-81
2023/08/21 06:38:57;;;;;;;12.20;4.60;;;21.90;1.00;;;;;;4938252;29;20179;-80
2023/08/21 06:41:25;;;;;;;11.30;4.30;;;22.00;1.00;;;;;;4937925;29;20215;-81
2023/08/21 06:43:51;;;;;;;11.57;4.77;;;22.00;1.00;;;;;;4938067;29;20234;-80
2023/08/21 06:46:17;;;;;;;11.27;4.07;;;22.00;1.00;;;;;;4937952;29;20260;-80
2023/08/21 06:48:43;;;;;;;10.27;3.80;;;22.00;1.00;;;;;;4937999;29;20651;-82
2023/08/21 06:51:10;;;;;;;12.03;3.73;;;22.10;1.00;;;;;;4937790;29;20180;-79
2023/08/21 06:53:36;;;;;;;11.17;3.97;;;22.10;1.00;;;;;;4937384;29;20212;-80
2023/08/21 06:56:02;;;;;;;9.93;4.30;;;22.20;1.00;;;;;;4937409;29;20184;-80
2023/08/21 06:58:28;;;;;;;9.23;3.90;;;22.00;1.00;;;;;;4937686;29;20190;-80
2023/08/21 07:00:55;;;;;;;13.00;4.60;;;21.90;1.00;;;;;;4920453;29;20220;-80
2023/08/21 07:03:23;;;;;;;11.60;6.17;;;22.00;1.00;;;;;;4942036;29;20173;-81
2023/08/21 07:06:00;;;;;;;9.87;5.00;;;22.20;1.00;;;;;;4938411;29;20180;-82
2023/08/21 07:08:26;;;;;;;10.97;3.90;;;22.40;1.00;;;;;;4938674;29;20185;-87
2023/08/21 07:10:52;;;;;;;14.87;6.63;;;22.60;1.00;;;;;;4939779;29;20207;-89
2023/08/21 07:13:18;;;;;;;11.97;4.80;;;22.70;1.00;;;;;;4942077;29;20180;-89
2023/08/21 07:15:44;;;;;;;13.63;4.53;;;22.80;1.00;;;;;;4943897;29;20185;-86
2023/08/21 07:18:10;;;;;;;12.07;4.50;;;23.10;1.00;;;;;;4944950;29;20203;-87
2023/08/21 07:20:36;;;;;;;11.77;4.33;;;23.20;1.00;;;;;;4940134;29;20177;-89
2023/08/21 07:23:02;;;;;;;12.37;4.13;;;23.30;1.00;;;;;;4939381;29;20523;-86
2023/08/21 07:25:30;;;;;;;18.17;4.67;;;23.30;1.00;;;;;;4939105;29;20177;-86
2023/08/21 07:27:58;;;;;;;12.47;4.70;;;23.20;1.00;;;;;;4939916;29;20205;-82
2023/08/21 07:30:24;;;;;;;13.00;4.80;;;23.40;1.00;;;;;;4938733;29;20195;-84
2023/08/21 07:32:50;;;;;;;10.07;4.27;;;23.50;1.00;;;;;;4937876;29;20200;-83
2023/08/21 07:35:16;;;;;;;9.20;3.63;;;23.60;1.00;;;;;;4937856;29;20177;-83
2023/08/21 07:37:45;;;;;;;8.83;3.43;;;23.70;1.00;;;;;;4938301;29;20169;-80
2023/08/21 07:40:11;;;;;;;11.23;4.07;;;23.70;1.00;;;;;;4943333;29;20179;-82
2023/08/21 07:42:37;;;;;;;12.07;4.30;;;23.70;1.00;;;;;;4940544;29;20208;-82
2023/08/21 07:45:03;;;;;;;9.50;4.10;;;23.60;1.00;;;;;;4940057;29;20664;-81
2023/08/21 07:47:29;;;;;;;10.53;4.07;;;23.60;1.00;;;;;;4938574;29;20264;-86
2023/08/21 07:49:57;;;;;;;11.83;4.50;;;23.50;1.00;;;;;;4938837;29;20244;-81
2023/08/21 07:52:23;;;;;;;12.47;4.07;;;23.40;1.00;;;;;;4938809;29;20185;-80
2023/08/21 07:54:52;;;;;;;9.30;3.67;;;23.30;1.00;;;;;;4938581;29;20560;-80
2023/08/21 07:57:18;;;;;;;11.33;4.10;;;23.40;1.00;;;;;;4939146;29;20161;-91
2023/08/21 07:59:44;;;;;;;13.13;4.60;;;23.50;1.00;;;;;;4926614;29;20189;-90
2023/08/21 08:02:12;;;;;;;11.97;4.20;;;23.60;1.00;;;;;;4945062;29;20220;-81
2023/08/21 08:04:38;;;;;;;10.97;3.90;;;23.80;1.00;;;;;;4946198;29;20165;-90
2023/08/21 08:07:10;;;;;;;13.10;4.00;;;23.80;1.00;;;;;;4922128;29;20177;-85
2023/08/21 08:09:36;;;;;;;10.07;3.63;;;23.70;1.00;;;;;;4938857;29;20549;-90
2023/08/21 08:12:02;;;;;;;12.87;4.53;;;23.80;1.00;;;;;;4939882;29;20184;-90
2023/08/21 08:14:28;;;;;;;11.00;3.70;;;23.80;1.00;;;;;;4922415;29;20192;-91
2023/08/21 08:16:53;;;;;;;8.73;3.90;;;24.00;1.00;;;;;;4945744;28;20181;-81
2023/08/21 08:19:19;;;;;;;9.00;4.33;;;24.10;1.00;;;;;;4959930;28;20217;-82
2023/08/21 08:21:46;;;;;;;14.27;4.60;;;24.10;1.00;;;;;;4959895;28;20205;-83
2023/08/21 08:24:13;;;;;;;10.93;4.20;;;24.10;1.00;;;;;;4941581;29;20722;-89
2023/08/21 08:26:40;;;;;;;13.70;4.60;;;24.00;1.00;;;;;;4938257;29;20185;-90
2023/08/21 08:29:28;;;;;;;12.60;4.67;;;23.80;1.00;;;;;;4951368;29;20180;-90
2023/08/21 08:31:53;;;;;;;13.40;4.87;;;23.40;1.00;;;;;;4941811;29;20169;-90
2023/08/21 08:34:20;;;;;;;10.53;4.60;;;23.50;1.00;;;;;;4921877;29;20191;-91
2023/08/21 08:36:46;;;;;;;10.70;4.30;;;23.70;1.00;;;;;;4938854;29;20161;-91
2023/08/21 08:39:12;;;;;;;13.37;5.17;;;24.00;1.00;;;;;;4940217;29;20188;-91
2023/08/21 08:41:58;;;;;;;10.00;4.47;;;24.10;1.00;;;;;;4936957;29;20208;-82
2023/08/21 08:44:28;;;;;;;19.93;11.67;;;24.30;1.00;;;;;;4918625;29;20204;-81
2023/08/21 08:46:56;;;;;;;11.57;4.80;;;24.20;1.00;;;;;;4936714;29;20209;-81
2023/08/21 08:49:22;;;;;;;11.33;4.17;;;24.30;1.00;;;;;;4936201;29;20657;-80
2023/08/21 08:51:51;;;;;;;11.43;4.40;;;24.40;1.00;;;;;;4936148;29;20256;-82
2023/08/21 08:54:17;;;;;;;13.63;5.30;;;24.30;1.00;;;;;;4939220;29;20185;-80
2023/08/21 08:56:43;;;;;;;15.77;5.57;;;24.30;1.00;;;;;;4937217;29;20180;-80
2023/08/21 08:59:09;;;;;;;12.40;5.07;;;24.20;1.00;;;;;;4946855;29;20232;-81
2023/08/21 09:01:35;;;;;;;10.47;4.63;;;24.20;1.00;;;;;;4918390;29;20212;-81
2023/08/21 09:04:02;;;;;;;10.93;4.53;;;24.30;1.00;;;;;;4935557;29;20191;-81
2023/08/21 09:06:28;;;;;;;11.67;4.47;;;24.30;1.00;;;;;;4935391;29;20197;-79
2023/08/21 09:08:55;;;;;;;12.10;6.03;;;24.50;1.00;;;;;;4935382;29;20652;-80
2023/08/21 09:11:21;;;;;;;9.07;3.77;;;24.50;1.00;;;;;;4927385;29;20280;-80
2023/08/21 09:13:50;;;;;;;7.80;2.93;;;24.70;1.00;;;;;;4955221;29;20637;-86
2023/08/21 09:16:17;;;;;;;9.13;3.70;;;24.90;1.00;;;;;;4955689;29;20216;-87
2023/08/21 09:18:54;;;;;;;10.37;3.97;;;25.00;1.00;;;;;;4956247;29;20193;-89
2023/08/21 09:21:21;;;;;;;9.37;4.00;;;25.00;99.90;;;;;;4962966;29;20791;-85
2023/08/21 09:23:48;;;;;;;12.27;4.20;;;25.00;99.90;;;;;;4960381;29;20176;-91
2023/08/21 09:26:21;;;;;;;8.00;3.60;;;25.10;99.90;;;;;;4959819;29;20199;-88
2023/08/21 09:28:51;;;;;;;13.83;9.17;;;25.10;1.00;;;;;;4956938;29;20675;-87
2023/08/21 09:31:22;;;;;;;14.73;6.53;;;25.30;99.90;;;;;;4953954;29;20241;-87
2023/08/21 09:34:04;;;;;;;8.67;2.57;;;25.40;99.90;;;;;;4925775;29;20181;-85
2023/08/21 09:36:30;;;;;;;7.17;2.97;;;24.90;99.90;;;;;;4966255;29;20172;-86
2023/08/21 09:38:56;;;;;;;8.97;3.30;;;24.70;99.90;;;;;;4946832;29;20714;-85
2023/08/21 09:41:23;;;;;;;10.87;3.87;;;24.70;99.90;;;;;;4924422;29;20221;-84
2023/08/21 09:43:51;;;;;;;8.77;3.07;;;24.80;99.90;;;;;;4924263;29;20189;-87
2023/08/21 09:46:26;;;;;;;9.10;3.50;;;25.00;99.90;;;;;;4924308;29;20181;-87
2023/08/21 09:48:53;;;;;;;8.87;3.60;;;25.30;99.90;;;;;;4903569;29;20173;-80
2023/08/21 09:51:20;;;;;;;8.43;3.20;;;25.60;99.90;;;;;;4930281;29;20211;-85
2023/08/21 09:53:51;;;;;;;8.70;3.10;;;25.50;99.90;;;;;;4958437;29;20176;-81
2023/08/21 09:56:19;;;;;;;9.50;3.50;;;25.40;99.90;;;;;;4941017;29;20276;-80
2023/08/21 09:58:51;;;;;;;8.73;3.03;;;25.40;99.90;;;;;;4958497;29;20161;-81
2023/08/21 10:01:18;;;;;;;7.07;3.10;;;25.20;99.90;;;;;;4947714;29;20251;-85
2023/08/21 10:03:47;;;;;;;8.83;3.03;;;25.30;99.90;;;;;;4927683;29;20636;-80
2023/08/21 10:06:19;;;;;;;6.40;2.40;;;25.40;99.90;;;;;;4921283;29;20173;-80
2023/08/21 10:08:49;;;;;;;8.47;2.77;;;25.40;99.90;;;;;;4938810;29;20173;-80
2023/08/21 10:11:19;;;;;;;5.97;2.13;;;25.30;99.90;;;;;;4938655;29;20505;-80
2023/08/21 10:13:46;;;;;;;6.33;2.60;;;25.40;99.90;;;;;;4945419;29;20180;-81
2023/08/21 10:16:14;;;;;;;5.93;2.07;;;25.50;99.90;;;;;;4926760;29;20363;-81
2023/08/21 10:18:44;;;;;;;5.97;2.13;;;25.50;99.90;;;;;;4927471;29;20218;-82
2023/08/21 10:21:14;;;;;;;4.67;2.13;;;25.60;99.90;;;;;;4946575;29;20211;-80
2023/08/21 10:23:40;;;;;;;7.57;2.70;;;25.60;99.90;;;;;;4925969;29;20212;-81
2023/08/21 10:26:08;;;;;;;6.17;2.00;;;25.60;99.90;;;;;;4926474;29;20893;-80
2023/08/21 10:28:52;;;;;;;7.67;3.37;;;25.70;67.00;;;;;;4945812;29;20553;-80
2023/08/21 10:31:39;;;;;;;5.53;2.03;;;25.80;27.50;;;;;;4945275;28;20262;-80
2023/08/21 10:34:13;;;;;;;6.17;1.80;;;25.70;1.00;;;;;;4942686;29;20648;-81
2023/08/21 10:36:39;;;;;;;6.43;1.60;;;25.70;1.00;;;;;;4940583;29;20192;-80
2023/08/21 10:39:17;;;;;;;4.10;1.50;;;25.70;1.00;;;;;;4940568;29;20184;-79
2023/08/21 10:42:15;;;;;;;4.07;1.57;;;25.20;1.00;;;;;;4945941;29;20212;-81
2023/08/21 10:44:47;;;;;;;3.80;1.30;;;25.20;1.00;;;;;;4944897;29;20481;-81
2023/08/21 10:47:23;;;;;;;3.47;1.47;;;25.20;1.00;;;;;;4924986;29;20612;-80
2023/08/21 10:49:52;;;;;;;3.47;1.50;;;25.10;1.00;;;;;;4948036;29;20202;-80
2023/08/21 10:52:28;;;;;;;4.03;1.70;;;25.10;1.00;;;;;;4946488;29;20177;-81
2023/08/21 10:54:56;;;;;;;4.73;1.93;;;25.40;1.00;;;;;;4919470;29;20392;-81
2023/08/21 10:57:23;;;;;;;4.93;1.60;;;25.70;1.00;;;;;;4943950;29;20206;-81
2023/08/21 10:59:54;;;;;;;4.30;1.87;;;25.80;1.00;;;;;;4940989;29;20169;-81
2023/08/21 11:02:20;;;;;;;4.53;1.67;;;25.70;1.00;;;;;;4949884;29;20303;-79
2023/08/21 11:04:46;;;;;;;5.23;1.83;;;25.50;1.00;;;;;;4939793;29;20228;-79
2023/08/21 11:07:12;;;;;;;6.30;2.00;;;25.50;1.00;;;;;;4937164;29;20191;-79
2023/08/21 11:09:38;;;;;;;10.50;2.27;;;25.50;1.00;;;;;;4950358;29;20194;-79
2023/08/21 11:12:09;;;;;;;5.80;2.00;;;25.70;1.00;;;;;;4956644;29;20188;-79
2023/08/21 11:14:35;;;;;;;8.90;2.23;;;25.80;1.00;;;;;;4943603;29;20222;-79
2023/08/21 11:17:01;;;;;;;7.10;1.40;;;25.90;1.00;;;;;;4939500;29;20709;-83
2023/08/21 11:19:26;;;;;;;5.17;1.47;;;26.00;1.00;;;;;;4944411;29;20208;-80
2023/08/21 11:22:03;;;;;;;5.37;1.50;;;25.90;99.90;;;;;;4944254;29;20208;-86
2023/08/21 11:24:42;;;;;;;4.10;1.70;;;25.80;1.00;;;;;;4949600;29;20209;-89
2023/08/21 11:27:09;;;;;;;5.60;1.77;;;25.50;1.00;;;;;;4932869;29;20208;-90
2023/08/21 11:29:47;;;;;;;3.10;1.30;;;25.40;1.00;;;;;;4955682;29;20231;-88
2023/08/21 11:32:16;;;;;;;6.73;1.37;;;25.50;1.00;;;;;;4948590;29;20186;-95
2023/08/21 11:34:46;;;;;;;5.47;1.80;;;25.50;1.00;;;;;;4952230;29;20204;-93
2023/08/21 11:37:12;;;;;;;6.43;1.73;;;25.90;1.00;;;;;;4947988;29;20243;-93
2023/08/21 11:39:49;;;;;;;4.30;1.87;;;26.10;1.00;;;;;;4953979;29;20219;-92
2023/08/21 11:42:21;;;;;;;5.17;2.20;;;26.10;1.00;;;;;;4953221;28;20200;-94
2023/08/21 11:44:48;;;;;;;3.70;1.40;;;26.10;1.00;;;;;;4946504;29;20172;-90
2023/08/21 11:47:15;;;;;;;4.57;1.67;;;25.90;1.00;;;;;;4944882;29;20662;-88
2023/08/21 11:49:42;;;;;;;4.90;1.90;;;25.90;1.00;;;;;;4962191;29;20183;-88
2023/08/21 11:52:09;;;;;;;6.13;1.87;;;26.00;1.00;;;;;;4960794;29;20188;-89
2023/08/21 11:54:36;;;;;;;7.00;1.83;;;26.10;1.00;;;;;;4962985;29;20178;-88
2023/08/21 11:57:11;;;;;;;5.80;1.97;;;26.20;1.00;;;;;;4959489;29;20188;-88
2023/08/21 11:59:37;;;;;;;8.47;2.20;;;26.20;1.00;;;;;;4941044;29;20180;-89
2023/08/21 12:02:16;;;;;;;7.50;2.20;;;26.10;1.00;;;;;;4958085;29;20359;-88
2023/08/21 12:04:43;;;;;;;6.87;2.10;;;25.90;1.00;;;;;;4940364;29;20258;-90
2023/08/21 12:07:09;;;;;;;6.40;2.27;;;25.80;1.00;;;;;;4957436;29;20633;-89
2023/08/21 12:09:35;;;;;;;6.17;1.97;;;26.10;1.00;;;;;;4940452;29;20194;-88
2023/08/21 12:12:00;;;;;;;5.10;2.33;;;26.20;1.00;;;;;;4957727;29;20180;-89
2023/08/21 12:14:28;;;;;;;5.77;2.20;;;26.40;1.00;;;;;;4958324;29;20541;-89
2023/08/21 12:16:54;;;;;;;5.03;2.00;;;26.30;1.00;;;;;;4957031;29;20314;-89
2023/08/21 12:19:22;;;;;;;4.90;1.97;;;26.50;1.00;;;;;;4957172;29;20180;-88
2023/08/21 12:21:47;;;;;;;3.70;1.90;;;26.50;1.00;;;;;;4958784;29;20212;-89
2023/08/21 12:24:13;;;;;;;5.32;2.05;;;26.50;99.90;;;;;;4961775;29;20592;-90
2023/08/21 12:26:40;;;;;;;6.07;2.17;;;26.60;1.00;;;;;;4959714;29;20178;-90
2023/08/21 12:29:05;;;;;;;6.70;2.33;;;26.70;99.90;;;;;;4959187;29;20180;-92
2023/08/21 12:31:31;;;;;;;4.40;2.07;;;26.60;99.90;;;;;;4942971;29;20276;-88
2023/08/21 12:33:57;;;;;;;8.03;2.47;;;26.40;1.00;;;;;;4960505;29;20177;-89
2023/08/21 12:36:23;;;;;;;5.77;2.00;;;26.40;1.00;;;;;;4955976;29;20537;-80
2023/08/21 12:38:49;;;;;;;8.43;2.30;;;26.50;99.90;;;;;;4955453;29;20200;-83
2023/08/21 12:41:15;;;;;;;4.37;1.67;;;26.50;99.90;;;;;;4955395;29;20203;-81
2023/08/21 12:43:41;;;;;;;5.30;1.90;;;26.50;1.00;;;;;;4955666;29;20180;-81
2023/08/21 12:46:06;;;;;;;7.93;2.40;;;26.60;99.90;;;;;;4955443;29;20182;-81
2023/08/21 12:48:32;;;;;;;6.27;2.40;;;26.80;99.90;;;;;;4955340;29;20174;-82
2023/08/21 12:50:58;;;;;;;7.47;2.23;;;26.80;99.90;;;;;;4955747;29;20629;-82
2023/08/21 12:53:23;;;;;;;5.80;2.03;;;26.50;99.90;;;;;;4937898;29;20191;-82
2023/08/21 12:55:49;;;;;;;4.83;1.70;;;26.50;99.90;;;;;;4937563;29;20644;-79